Mendota, IL

11:03 PM CDT on July 23, 2016 (GMT -0500)
Northbrook | | Change Station

Elev 778 ft 41.56 °N, 89.12 °W | Updated 57 seconds ago

Light Rain
Light Rain
72.5 °F
Feels Like 72.5 °F
N
0.0
Wind Variable Wind from South
Gusts 0.0 mph

Today
High -- | Low -- °F
--% Chance of Precip.
Yesterday
High -- | Low -- °F
Precip. -- in
Pressure 29.93 in
Visibility 10.0 miles
Clouds Scattered Clouds 5500 ft
Scattered Clouds 7500 ft
Mostly Cloudy 11000 ft
Dew Point 72 °F
Humidity 97%
Rainfall 0.58 in
Snow Depth Not available.
5:42 AM 8:22 PM
Waning Gibbous, 80% visible
METAR KVYS 240355Z AUTO 15006KT 10SM -RA SCT055 SCT075 BKN110 23/22 A2993 RMK AO2 LTG DSNT ALQS T02330217
Pressure 29.93 in
Visibility 10.0 miles
Clouds Scattered Clouds 5500 ft
Scattered Clouds 7500 ft
Mostly Cloudy 11000 ft
Dew Point 72 °F
Humidity 97%
Rainfall 0.58 in
Snow Depth Not available.
5:42 AM 8:22 PM
Waning Gibbous, 80% visible
METAR KVYS 240355Z AUTO 15006KT 10SM -RA SCT055 SCT075 BKN110 23/22 A2993 RMK AO2 LTG DSNT ALQS T02330217

10-Day Weather Forecast

Almanac

Astronomy

Jul. 23, 2016 Rise Set
Actual Time
Civil Twilight
Nautical Twilight
Astronomical Twilight
Moon
Length of Visible Light
Length of Day
Tomorrow will be .
, % of the Moon is Illuminated

Today's Extremes

State Highs State Lows

Community

WunderPhotos

Upload Photos

1,927,025 photos uploaded!

WunderBlog® & News

Nearby

Air Quality

  Air Quality AQ Index Pollutant
Not available.

Snow Depth

Station Depth Elevation

Earthquake Activity

City Distance Mag. Time & Date
Minimum magnitude displayed is 2.5.

Coastal Water Temperatures

Place Temperature

Stations

Nearby Weather Stations

Station Location Temp. Windchill Dew Point Humidity Wind Precip. Elev Updated Type
                   

Watches & Warnings

There are currently no watches in effect.